Time;durP1;ratioP1;P1;durP2;ratioP2;P2;SDS_P1;SDS_P2;PMS_P1;PMS_P2;Temp;Humidity;BMP_temperature;BMP_pressure;BME280_temperature;BME280_humidity;BME280_pressure;Samples;Min_cycle;Max_cycle;Signal;HPM_P1;HPM_P2
2023/05/19 00:00:57;;;;;;;10.55;6.20;;;21.20;63.30;;;;;;4907783;28;89047;-87
2023/05/19 00:03:23;;;;;;;8.48;5.80;;;21.20;63.20;;;;;;4889675;28;89758;-90
2023/05/19 00:05:52;;;;;;;11.10;5.68;;;21.20;63.40;;;;;;4891129;28;87626;-86
2023/05/19 00:08:19;;;;;;;9.57;5.78;;;21.20;63.40;;;;;;4888658;28;87883;-88
2023/05/19 00:10:45;;;;;;;6.65;5.43;;;21.20;63.50;;;;;;4888651;28;88511;-86
2023/05/19 00:13:11;;;;;;;9.27;5.43;;;21.20;63.50;;;;;;4890860;28;88347;-87
2023/05/19 00:15:37;;;;;;;9.35;5.43;;;21.20;63.60;;;;;;4889539;28;90626;-88
2023/05/19 00:18:02;;;;;;;8.70;5.75;;;21.20;63.50;;;;;;4889500;28;87961;-87
2023/05/19 00:20:28;;;;;;;9.02;5.50;;;21.20;63.70;;;;;;4890774;28;87618;-87
2023/05/19 00:22:54;;;;;;;9.45;5.82;;;21.20;63.50;;;;;;4891796;28;87220;-87
2023/05/19 00:25:20;;;;;;;9.52;5.78;;;21.10;63.40;;;;;;4891460;28;87751;-87
2023/05/19 00:27:45;;;;;;;8.38;5.40;;;21.10;63.30;;;;;;4890457;28;88023;-87
2023/05/19 00:30:11;;;;;;;8.65;6.28;;;21.10;63.30;;;;;;4890556;28;87594;-87
2023/05/19 00:32:37;;;;;;;8.30;5.18;;;21.10;63.60;;;;;;4889800;28;89548;-87
2023/05/19 00:35:03;;;;;;;9.85;5.53;;;21.10;63.70;;;;;;4890843;28;88773;-87
2023/05/19 00:37:29;;;;;;;8.45;5.63;;;21.10;63.60;;;;;;4889993;28;87758;-87
2023/05/19 00:39:54;;;;;;;8.57;5.50;;;21.10;63.60;;;;;;4888313;28;87644;-87
2023/05/19 00:42:20;;;;;;;8.50;5.07;;;21.10;63.50;;;;;;4890450;28;88452;-87
2023/05/19 00:44:46;;;;;;;8.90;5.55;;;21.10;63.50;;;;;;4888194;28;88864;-87
2023/05/19 00:47:12;;;;;;;8.57;5.25;;;21.10;63.60;;;;;;4891147;28;87938;-88
2023/05/19 00:49:37;;;;;;;8.07;5.03;;;21.10;63.50;;;;;;4891941;28;86527;-88
2023/05/19 00:52:05;;;;;;;8.27;5.22;;;21.10;63.50;;;;;;4892344;28;89262;-87
2023/05/19 00:54:32;;;;;;;8.60;5.55;;;21.00;63.50;;;;;;4890552;28;88063;-86
2023/05/19 00:56:59;;;;;;;8.98;5.78;;;21.00;63.70;;;;;;4888113;28;88030;-86
2023/05/19 00:59:25;;;;;;;8.18;5.05;;;21.00;63.70;;;;;;4889853;28;87704;-87
2023/05/19 01:01:51;;;;;;;7.18;4.97;;;21.00;63.60;;;;;;4888348;28;91073;-87
2023/05/19 01:04:20;;;;;;;9.90;5.97;;;21.00;63.60;;;;;;4889394;28;90451;-88
2023/05/19 01:06:56;;;;;;;7.93;6.00;;;21.00;63.60;;;;;;4889941;28;87332;-88
2023/05/19 01:09:22;;;;;;;8.07;5.25;;;21.00;63.70;;;;;;4888433;28;90106;-86
2023/05/19 01:11:52;;;;;;;8.07;5.45;;;21.00;63.80;;;;;;4890738;28;88502;-88
2023/05/19 01:14:19;;;;;;;8.88;4.85;;;21.00;63.60;;;;;;4889821;28;87798;-87
2023/05/19 01:17:23;;;;;;;8.63;5.25;;;20.90;63.60;;;;;;4889936;28;87241;-87
2023/05/19 01:20:17;;;;;;;7.78;5.03;;;21.00;63.60;;;;;;4884259;28;87744;-86
2023/05/19 01:22:53;;;;;;;8.27;5.28;;;21.00;63.90;;;;;;4888925;28;89594;-88
2023/05/19 01:25:56;;;;;;;7.65;5.18;;;21.00;63.70;;;;;;4888202;28;91576;-87
2023/05/19 01:28:42;;;;;;;7.50;4.80;;;21.00;63.80;;;;;;4905288;28;87741;-86
2023/05/19 01:31:10;;;;;;;6.93;4.85;;;21.00;63.90;;;;;;4891311;28;88105;-86
2023/05/19 01:33:38;;;;;;;6.17;4.40;;;20.90;63.70;;;;;;4888888;28;89128;-87
2023/05/19 01:36:06;;;;;;;6.18;4.43;;;20.90;63.80;;;;;;4903193;28;90094;-86
2023/05/19 01:38:34;;;;;;;7.55;5.40;;;20.90;63.80;;;;;;4889892;28;87596;-88
2023/05/19 01:41:03;;;;;;;7.95;5.65;;;20.90;63.80;;;;;;4904816;28;90158;-87
2023/05/19 01:43:30;;;;;;;7.97;5.57;;;20.90;63.70;;;;;;4887406;28;89499;-86
2023/05/19 01:45:57;;;;;;;9.60;5.05;;;20.90;63.80;;;;;;4888705;28;92199;-88
2023/05/19 01:48:23;;;;;;;7.45;4.53;;;20.90;63.80;;;;;;4903966;28;88425;-87
2023/05/19 01:50:49;;;;;;;8.85;5.05;;;20.90;63.80;;;;;;4888748;28;87920;-87
2023/05/19 01:53:15;;;;;;;6.78;4.85;;;20.90;63.90;;;;;;4887240;28;91503;-86
2023/05/19 01:55:53;;;;;;;9.15;5.30;;;20.90;63.80;;;;;;4887030;28;90030;-87
2023/05/19 01:58:30;;;;;;;9.95;5.28;;;20.90;63.90;;;;;;4889507;28;87649;-88
2023/05/19 02:01:06;;;;;;;8.48;4.90;;;20.80;63.70;;;;;;4889787;28;87352;-87
2023/05/19 02:03:41;;;;;;;6.55;4.43;;;20.80;63.80;;;;;;4888287;28;87936;-87
2023/05/19 02:06:12;;;;;;;7.85;5.25;;;20.80;63.60;;;;;;4888129;28;89070;-87
2023/05/19 02:09:01;;;;;;;6.78;4.95;;;20.80;63.60;;;;;;4903150;28;87867;-87
2023/05/19 02:11:53;;;;;;;7.83;4.90;;;20.80;63.70;;;;;;4887514;28;88316;-86
2023/05/19 02:14:23;;;;;;;5.63;4.22;;;20.80;63.50;;;;;;4888134;28;89416;-87
2023/05/19 02:16:49;;;;;;;7.60;5.03;;;20.80;63.80;;;;;;4904349;28;91488;-87
2023/05/19 02:19:27;;;;;;;7.43;5.35;;;20.80;63.90;;;;;;4890673;28;87580;-86
2023/05/19 02:21:52;;;;;;;7.28;5.45;;;20.80;63.90;;;;;;4888109;28;94369;-86
2023/05/19 02:24:21;;;;;;;6.22;4.90;;;20.80;64.00;;;;;;4887942;28;90657;-87
2023/05/19 02:26:48;;;;;;;5.45;3.92;;;20.80;63.90;;;;;;4887270;28;89492;-87
2023/05/19 02:29:14;;;;;;;6.85;4.75;;;20.80;64.00;;;;;;4887909;28;88345;-88
2023/05/19 02:31:39;;;;;;;6.03;4.60;;;20.80;63.90;;;;;;4887705;28;87915;-87
2023/05/19 02:34:05;;;;;;;6.45;4.35;;;20.80;64.10;;;;;;4890132;28;90136;-87
2023/05/19 02:36:36;;;;;;;6.35;4.65;;;20.80;64.10;;;;;;4889971;28;88016;-87
2023/05/19 02:39:04;;;;;;;6.43;4.32;;;20.80;63.80;;;;;;4887248;28;88205;-87
2023/05/19 02:41:30;;;;;;;7.43;5.37;;;20.80;63.70;;;;;;4889134;28;87307;-87
2023/05/19 02:43:56;;;;;;;9.35;4.97;;;20.80;63.80;;;;;;4887823;28;87610;-86
2023/05/19 02:46:23;;;;;;;6.40;4.90;;;20.80;63.60;;;;;;4888745;28;87381;-87
2023/05/19 02:48:49;;;;;;;6.63;4.80;;;20.70;63.60;;;;;;4892228;28;87956;-88
2023/05/19 02:51:15;;;;;;;7.43;5.03;;;20.70;64.00;;;;;;4891548;28;87045;-87
2023/05/19 02:53:41;;;;;;;7.10;4.65;;;20.80;63.90;;;;;;4890647;28;89124;-85
2023/05/19 02:56:07;;;;;;;8.75;5.10;;;20.80;64.50;;;;;;4891027;28;90013;-86
2023/05/19 02:58:33;;;;;;;6.95;4.78;;;20.70;63.70;;;;;;4890133;28;87780;-86
2023/05/19 03:00:58;;;;;;;7.95;4.82;;;20.70;63.70;;;;;;4892116;28;88024;-86
2023/05/19 03:03:24;;;;;;;6.43;4.25;;;20.70;63.80;;;;;;4891167;28;89308;-87
2023/05/19 03:05:50;;;;;;;7.60;5.28;;;20.70;63.90;;;;;;4891690;28;88715;-88
2023/05/19 03:08:16;;;;;;;6.63;4.57;;;20.70;63.90;;;;;;4889837;28;87649;-87
2023/05/19 03:10:41;;;;;;;5.88;4.53;;;20.70;64.00;;;;;;4892588;28;87992;-86
2023/05/19 03:13:07;;;;;;;6.28;4.78;;;20.70;63.90;;;;;;4892924;28;88135;-87
2023/05/19 03:15:33;;;;;;;6.70;4.97;;;20.70;63.80;;;;;;4891066;28;89590;-86
2023/05/19 03:17:58;;;;;;;6.72;5.05;;;20.70;63.70;;;;;;4892089;28;87602;-87
2023/05/19 03:20:24;;;;;;;6.38;4.40;;;20.70;63.70;;;;;;4890531;28;86751;-86
2023/05/19 03:22:50;;;;;;;5.78;4.40;;;20.70;63.70;;;;;;4892532;28;88134;-87
2023/05/19 03:25:16;;;;;;;7.07;4.90;;;20.70;63.80;;;;;;4893158;28;87983;-88
2023/05/19 03:27:42;;;;;;;8.05;4.82;;;20.70;63.70;;;;;;4892337;28;88611;-87
2023/05/19 03:30:08;;;;;;;5.47;4.70;;;20.70;63.70;;;;;;4890634;28;88193;-88
2023/05/19 03:32:36;;;;;;;6.05;4.53;;;20.70;63.80;;;;;;4891474;28;87695;-87
2023/05/19 03:35:03;;;;;;;5.13;3.92;;;20.70;63.80;;;;;;4889262;28;89830;-86
2023/05/19 03:37:29;;;;;;;6.00;4.05;;;20.60;63.80;;;;;;4888924;28;87030;-86
2023/05/19 03:39:55;;;;;;;6.35;4.53;;;20.60;64.00;;;;;;4890239;28;88984;-87
2023/05/19 03:42:20;;;;;;;6.40;4.57;;;20.60;64.30;;;;;;4892653;28;89217;-87
2023/05/19 03:44:46;;;;;;;6.90;4.65;;;20.60;64.50;;;;;;4889696;28;88558;-87
2023/05/19 03:47:12;;;;;;;6.50;4.28;;;20.60;64.40;;;;;;4890529;28;87487;-87
2023/05/19 03:49:38;;;;;;;6.53;4.85;;;20.60;64.50;;;;;;4890279;28;88026;-87
2023/05/19 03:52:03;;;;;;;6.53;4.40;;;20.60;64.40;;;;;;4892282;28;90042;-87
2023/05/19 03:54:29;;;;;;;5.03;4.22;;;20.60;64.20;;;;;;4889791;28;91644;-86
2023/05/19 03:56:55;;;;;;;7.00;5.20;;;20.60;64.40;;;;;;4890448;28;87431;-87
2023/05/19 03:59:22;;;;;;;7.25;4.53;;;20.60;64.20;;;;;;4889792;28;87701;-88
2023/05/19 04:01:48;;;;;;;6.95;4.35;;;20.60;64.50;;;;;;4889246;28;89688;-87
2023/05/19 04:04:14;;;;;;;6.57;4.13;;;20.60;65.00;;;;;;4889818;28;89955;-87
2023/05/19 04:06:39;;;;;;;6.68;4.57;;;20.60;64.30;;;;;;4890160;28;87514;-86
2023/05/19 04:09:12;;;;;;;6.65;4.70;;;20.60;64.50;;;;;;4891493;28;87323;-87
2023/05/19 04:11:39;;;;;;;5.60;4.07;;;20.60;64.20;;;;;;4890554;28;91192;-87
2023/05/19 04:14:05;;;;;;;5.95;4.22;;;20.60;64.40;;;;;;4891313;28;87312;-88
2023/05/19 04:16:31;;;;;;;6.68;4.65;;;20.60;64.30;;;;;;4888440;28;88675;-87
2023/05/19 04:18:56;;;;;;;6.07;4.18;;;20.60;64.30;;;;;;4891375;28;87265;-86
2023/05/19 04:21:22;;;;;;;5.13;3.45;;;20.60;64.30;;;;;;4890359;28;90901;-88
2023/05/19 04:23:48;;;;;;;5.35;3.47;;;20.70;64.20;;;;;;4889937;28;88052;-86
2023/05/19 04:26:18;;;;;;;5.20;3.67;;;20.70;63.90;;;;;;4891239;28;87428;-87
2023/05/19 04:28:43;;;;;;;5.88;4.20;;;20.70;64.10;;;;;;4892366;28;87454;-86
2023/05/19 04:31:11;;;;;;;5.47;3.85;;;20.70;64.10;;;;;;4906128;28;90138;-87
2023/05/19 04:33:37;;;;;;;4.95;4.00;;;20.70;64.10;;;;;;4890649;28;87631;-88
2023/05/19 04:36:07;;;;;;;5.28;4.20;;;20.80;64.00;;;;;;4905205;28;87558;-88
2023/05/19 04:38:33;;;;;;;5.43;4.25;;;20.80;64.20;;;;;;4891545;28;89293;-87
2023/05/19 04:41:00;;;;;;;5.60;3.58;;;20.80;63.80;;;;;;4890724;28;89146;-87
2023/05/19 04:43:27;;;;;;;5.20;3.63;;;20.90;63.90;;;;;;4888365;28;89629;-87
2023/05/19 04:45:53;;;;;;;5.65;3.53;;;21.00;63.90;;;;;;4891527;28;87396;-87
2023/05/19 04:48:20;;;;;;;5.43;3.20;;;21.00;63.70;;;;;;4891490;28;88779;-86
2023/05/19 04:50:47;;;;;;;5.85;3.63;;;21.00;63.60;;;;;;4890368;28;88184;-85
2023/05/19 04:53:14;;;;;;;5.10;3.33;;;21.00;63.70;;;;;;4887045;28;88511;-86
2023/05/19 04:55:39;;;;;;;5.28;3.90;;;21.10;63.30;;;;;;4888974;28;87278;-86
2023/05/19 04:58:05;;;;;;;4.30;2.95;;;21.10;61.00;;;;;;4890362;28;86951;-86
2023/05/19 05:00:31;;;;;;;4.22;3.28;;;21.10;61.40;;;;;;4887056;28;89598;-85
2023/05/19 05:02:57;;;;;;;4.78;3.78;;;21.20;61.40;;;;;;4888931;28;90038;-85
2023/05/19 05:05:23;;;;;;;6.85;4.32;;;21.20;61.40;;;;;;4889842;28;88928;-86
2023/05/19 05:07:49;;;;;;;5.30;3.63;;;21.30;61.20;;;;;;4888070;28;89342;-86
2023/05/19 05:10:15;;;;;;;7.25;3.67;;;21.20;60.90;;;;;;4888930;28;88134;-86
2023/05/19 05:12:41;;;;;;;14.35;5.85;;;21.30;61.60;;;;;;4889082;28;88353;-86
2023/05/19 05:15:07;;;;;;;23.17;8.25;;;21.40;62.40;;;;;;4892895;28;87367;-88
2023/05/19 05:17:34;;;;;;;48.17;8.90;;;21.50;62.00;;;;;;4889170;28;90494;-87
2023/05/19 05:20:01;;;;;;;27.58;8.35;;;21.50;61.50;;;;;;4888620;28;91168;-88
2023/05/19 05:22:27;;;;;;;28.70;8.80;;;21.70;61.70;;;;;;4890544;28;87781;-86
2023/05/19 05:24:53;;;;;;;31.98;8.95;;;21.80;61.90;;;;;;4887853;28;87880;-86
2023/05/19 05:27:18;;;;;;;34.08;9.85;;;21.80;62.00;;;;;;4903261;28;88094;-86
2023/05/19 05:29:44;;;;;;;35.00;11.02;;;21.80;61.70;;;;;;4888186;28;89020;-85
2023/05/19 05:32:10;;;;;;;35.20;9.65;;;21.80;61.90;;;;;;4885070;28;91280;-87
2023/05/19 05:34:36;;;;;;;34.90;9.63;;;21.90;61.90;;;;;;4885829;28;87893;-87
2023/05/19 05:37:02;;;;;;;35.08;10.60;;;21.90;62.60;;;;;;4888892;28;89909;-88
2023/05/19 05:39:28;;;;;;;34.85;9.27;;;21.90;63.00;;;;;;4888399;28;88140;-86
2023/05/19 05:41:54;;;;;;;28.02;9.02;;;22.00;63.10;;;;;;4884664;28;91331;-85
2023/05/19 05:44:19;;;;;;;31.83;9.30;;;22.10;63.00;;;;;;4871164;28;86978;-87
2023/05/19 05:46:45;;;;;;;31.52;9.13;;;22.10;62.40;;;;;;4872398;28;87285;-85
2023/05/19 05:49:12;;;;;;;34.45;9.40;;;22.10;62.40;;;;;;4875180;28;88079;-87
2023/05/19 05:51:38;;;;;;;35.17;9.30;;;22.20;62.80;;;;;;4875785;28;88132;-86
2023/05/19 05:54:06;;;;;;;30.48;9.18;;;22.20;62.80;;;;;;4872861;28;89060;-86
2023/05/19 05:56:36;;;;;;;32.88;10.00;;;22.30;63.20;;;;;;4873453;28;87289;-87
2023/05/19 05:59:02;;;;;;;30.80;8.95;;;22.40;63.40;;;;;;4872779;28;89094;-89
2023/05/19 06:01:29;;;;;;;30.92;9.13;;;22.40;63.40;;;;;;4875431;28;87825;-87
2023/05/19 06:03:55;;;;;;;36.25;10.05;;;22.50;63.20;;;;;;4891594;28;87905;-88
2023/05/19 06:06:21;;;;;;;30.88;9.65;;;22.60;63.30;;;;;;4889597;28;89547;-88
2023/05/19 06:08:46;;;;;;;26.70;9.57;;;22.60;62.90;;;;;;4889072;28;89650;-88
2023/05/19 06:11:12;;;;;;;29.67;9.57;;;22.70;62.60;;;;;;4876822;28;88581;-88
2023/05/19 06:13:40;;;;;;;26.30;9.55;;;22.80;62.80;;;;;;4874451;28;87201;-89
2023/05/19 06:16:06;;;;;;;27.95;9.68;;;22.80;63.00;;;;;;4875742;28;89509;-87
2023/05/19 06:18:32;;;;;;;30.92;8.65;;;22.80;63.10;;;;;;4873391;28;92137;-86
2023/05/19 06:20:58;;;;;;;26.67;9.55;;;22.80;63.40;;;;;;4873825;28;89550;-89
2023/05/19 06:23:25;;;;;;;28.23;9.68;;;22.80;63.50;;;;;;4877902;28;87708;-88
2023/05/19 06:25:51;;;;;;;34.88;10.63;;;22.80;63.40;;;;;;4877897;28;88684;-88
2023/05/19 06:28:16;;;;;;;30.13;9.45;;;22.80;63.80;;;;;;4893039;28;90631;-88
2023/05/19 06:30:42;;;;;;;28.30;9.13;;;22.80;64.90;;;;;;4897330;28;92734;-89
2023/05/19 06:33:08;;;;;;;26.67;9.00;;;22.90;66.30;;;;;;4897239;28;86958;-88
2023/05/19 06:35:33;;;;;;;36.13;9.50;;;22.90;65.30;;;;;;4896853;28;88126;-88
2023/05/19 06:37:59;;;;;;;32.88;10.00;;;22.80;64.50;;;;;;4893525;28;90106;-88
2023/05/19 06:40:25;;;;;;;23.17;8.77;;;22.90;64.00;;;;;;4894059;28;91163;-88
2023/05/19 06:42:50;;;;;;;29.90;8.98;;;22.90;63.50;;;;;;4896330;28;88000;-88
2023/05/19 06:45:20;;;;;;;26.45;8.65;;;22.90;63.10;;;;;;4896167;28;90101;-88
2023/05/19 06:47:46;;;;;;;28.05;9.25;;;22.90;62.60;;;;;;4897620;28;89689;-88
2023/05/19 06:50:11;;;;;;;22.83;8.07;;;22.90;63.10;;;;;;4896482;28;91313;-88
2023/05/19 06:52:37;;;;;;;31.25;9.05;;;22.90;64.80;;;;;;4892035;28;88082;-88
2023/05/19 06:55:04;;;;;;;29.48;10.18;;;22.90;64.40;;;;;;4895909;28;87478;-88
2023/05/19 06:57:29;;;;;;;24.48;9.30;;;22.90;65.00;;;;;;4891524;28;91712;-87
2023/05/19 06:59:55;;;;;;;25.00;9.20;;;22.90;65.30;;;;;;4892225;28;90261;-87
2023/05/19 07:02:21;;;;;;;25.40;9.32;;;22.90;64.90;;;;;;4892632;28;87365;-88
2023/05/19 07:04:46;;;;;;;27.70;9.07;;;23.00;65.70;;;;;;4889265;28;89456;-87
2023/05/19 07:07:12;;;;;;;25.17;8.52;;;22.90;64.50;;;;;;4871505;28;91530;-86
2023/05/19 07:09:38;;;;;;;28.38;9.07;;;23.00;65.20;;;;;;4872833;28;88596;-90
2023/05/19 07:12:04;;;;;;;21.60;8.68;;;23.00;65.20;;;;;;4873981;28;87788;-86
2023/05/19 07:14:30;;;;;;;32.83;8.75;;;23.00;65.30;;;;;;4876388;28;88140;-87
2023/05/19 07:16:56;;;;;;;22.08;9.07;;;23.10;65.50;;;;;;4873710;28;88866;-85
2023/05/19 07:19:22;;;;;;;26.23;8.43;;;23.00;65.40;;;;;;4874640;28;87494;-86
2023/05/19 07:21:48;;;;;;;27.60;9.07;;;23.10;65.60;;;;;;4875168;28;87099;-86
2023/05/19 07:24:14;;;;;;;23.38;8.80;;;23.00;65.70;;;;;;4871779;28;86878;-86
2023/05/19 07:26:40;;;;;;;25.10;8.13;;;23.10;66.00;;;;;;4873659;28;87649;-85
2023/05/19 07:29:05;;;;;;;27.83;9.30;;;23.10;66.30;;;;;;4874750;28;87820;-85
2023/05/19 07:31:31;;;;;;;28.35;8.65;;;23.20;66.50;;;;;;4875459;28;89014;-87
2023/05/19 07:33:57;;;;;;;24.80;8.50;;;23.20;66.40;;;;;;4876902;28;87833;-83
2023/05/19 07:36:23;;;;;;;31.85;9.02;;;23.20;66.60;;;;;;4875095;28;87962;-84
2023/05/19 07:38:49;;;;;;;22.92;8.82;;;23.20;66.60;;;;;;4877480;28;88093;-86
2023/05/19 07:41:14;;;;;;;24.38;8.60;;;23.20;67.00;;;;;;4876714;28;87823;-86
2023/05/19 07:43:40;;;;;;;30.63;8.18;;;23.00;64.10;;;;;;4874563;28;87496;-86
2023/05/19 07:46:06;;;;;;;21.38;6.75;;;22.90;64.80;;;;;;4873509;28;88224;-87
2023/05/19 07:48:31;;;;;;;17.17;7.38;;;22.80;62.60;;;;;;4875332;28;87861;-92
2023/05/19 07:50:57;;;;;;;21.77;7.20;;;22.70;61.90;;;;;;4876687;28;87844;-82
2023/05/19 07:53:23;;;;;;;19.38;7.50;;;22.80;60.90;;;;;;4873810;28;87526;-86
2023/05/19 07:55:50;;;;;;;18.70;6.40;;;22.80;60.10;;;;;;4882042;28;90620;-87
2023/05/19 07:58:16;;;;;;;21.05;6.72;;;22.90;60.00;;;;;;4883058;28;87631;-83
2023/05/19 08:00:46;;;;;;;19.70;6.47;;;23.00;60.40;;;;;;4880262;28;87881;-90
2023/05/19 08:03:12;;;;;;;20.70;6.53;;;23.00;60.20;;;;;;4879382;28;90922;-87
2023/05/19 08:05:39;;;;;;;20.70;7.13;;;22.90;60.30;;;;;;4897050;28;88918;-83
2023/05/19 08:08:05;;;;;;;16.15;6.53;;;22.90;60.40;;;;;;4880593;28;87434;-86
2023/05/19 08:10:30;;;;;;;23.00;7.88;;;23.00;60.50;;;;;;4878257;28;87539;-92
2023/05/19 08:13:04;;;;;;;17.85;7.18;;;23.00;59.40;;;;;;4878770;28;86824;-87
2023/05/19 08:15:32;;;;;;;15.40;6.38;;;23.00;59.90;;;;;;4879419;28;89122;-91
2023/05/19 08:18:04;;;;;;;24.70;7.85;;;23.00;60.20;;;;;;4874834;28;87947;-89
2023/05/19 08:20:33;;;;;;;15.20;6.03;;;23.10;60.30;;;;;;4877215;28;88752;-89
2023/05/19 08:23:02;;;;;;;21.25;7.00;;;23.10;60.50;;;;;;4885252;28;87565;-91
2023/05/19 08:25:34;;;;;;;23.08;6.70;;;23.20;60.70;;;;;;4870153;28;88542;-91
2023/05/19 08:28:28;;;;;;;23.60;6.57;;;23.20;60.90;;;;;;4891111;28;87918;-92
2023/05/19 08:30:55;;;;;;;20.30;6.85;;;23.20;61.00;;;;;;4882995;28;88047;-88
2023/05/19 08:33:30;;;;;;;22.20;7.32;;;23.20;61.10;;;;;;4860499;28;89369;-89
2023/05/19 08:35:59;;;;;;;23.20;8.00;;;23.20;61.20;;;;;;4889364;28;87693;-87
2023/05/19 08:38:36;;;;;;;26.20;7.35;;;23.20;61.40;;;;;;4883765;28;87411;-89
2023/05/19 08:41:10;;;;;;;22.00;6.22;;;23.20;61.70;;;;;;4873980;28;87191;-88
2023/05/19 08:43:36;;;;;;;28.48;7.65;;;23.30;61.90;;;;;;4892436;28;87839;-91
2023/05/19 08:46:06;;;;;;;19.63;7.30;;;23.20;61.80;;;;;;4880547;28;90258;-88
2023/05/19 08:48:36;;;;;;;18.58;6.63;;;23.30;62.20;;;;;;4894556;28;88500;-87
2023/05/19 08:51:42;;;;;;;21.92;7.80;;;23.30;62.20;;;;;;4880598;28;88157;-88
2023/05/19 08:54:14;;;;;;;21.33;7.63;;;23.20;62.40;;;;;;4837573;28;87553;-88
2023/05/19 08:56:44;;;;;;;22.23;7.55;;;23.30;62.60;;;;;;4895994;28;88105;-90
2023/05/19 08:59:33;;;;;;;28.20;8.65;;;23.30;62.60;;;;;;4896530;28;87811;-92
2023/05/19 09:01:59;;;;;;;33.13;9.17;;;23.30;62.10;;;;;;4900683;28;87199;-92
2023/05/19 09:04:26;;;;;;;26.27;8.65;;;23.40;62.20;;;;;;4902547;28;86920;-88
2023/05/19 09:06:55;;;;;;;26.23;8.82;;;23.40;62.40;;;;;;4904411;28;89093;-90
2023/05/19 09:09:22;;;;;;;29.77;8.90;;;23.40;62.50;;;;;;4894437;28;88717;-94
2023/05/19 09:11:52;;;;;;;37.60;10.00;;;23.40;62.60;;;;;;4895003;28;88697;-91
2023/05/19 09:14:19;;;;;;;34.15;9.07;;;23.40;62.50;;;;;;4897536;28;88336;-89
2023/05/19 09:17:06;;;;;;;23.13;8.52;;;23.40;62.50;;;;;;4910994;28;90456;-88
2023/05/19 09:19:42;;;;;;;27.20;8.20;;;23.40;62.50;;;;;;4896052;28;87710;-93
2023/05/19 09:22:08;;;;;;;27.50;8.73;;;23.40;62.30;;;;;;4899241;28;87775;-88
2023/05/19 09:24:43;;;;;;;21.42;8.65;;;23.50;62.20;;;;;;4902444;28;87681;-87
2023/05/19 09:27:32;;;;;;;28.02;8.48;;;23.50;62.30;;;;;;4900466;28;87807;-88
2023/05/19 09:30:09;;;;;;;30.63;8.85;;;23.50;62.60;;;;;;4913369;28;88792;-91
2023/05/19 09:32:42;;;;;;;31.00;8.55;;;23.50;62.50;;;;;;4891132;28;87736;-93
2023/05/19 09:35:19;;;;;;;31.00;8.77;;;23.50;62.50;;;;;;4890829;28;88514;-89
2023/05/19 09:37:45;;;;;;;29.08;9.10;;;23.60;63.10;;;;;;4898863;28;91802;-92
2023/05/19 09:40:14;;;;;;;31.95;9.18;;;23.50;62.90;;;;;;4890784;28;89381;-90
2023/05/19 09:42:40;;;;;;;20.48;7.75;;;23.60;63.10;;;;;;4890440;28;87644;-91
2023/05/19 09:45:11;;;;;;;23.90;8.25;;;23.60;63.30;;;;;;4880375;28;87688;-90
2023/05/19 09:47:42;;;;;;;21.52;7.72;;;23.60;63.30;;;;;;4894496;28;88435;-91
2023/05/19 09:50:12;;;;;;;21.80;7.80;;;23.50;59.90;;;;;;4897100;28;89451;-87
2023/05/19 09:52:42;;;;;;;21.98;8.25;;;23.50;61.60;;;;;;4895695;28;87694;-87
2023/05/19 09:55:12;;;;;;;20.85;8.02;;;23.50;61.60;;;;;;4892817;28;87085;-87
2023/05/19 09:57:38;;;;;;;26.55;7.68;;;23.50;61.80;;;;;;4890809;28;87799;-90
2023/05/19 10:00:16;;;;;;;20.27;7.00;;;23.50;61.60;;;;;;4891128;28;88110;-88
2023/05/19 10:02:44;;;;;;;23.08;7.53;;;23.40;61.70;;;;;;4894109;28;88182;-89
2023/05/19 10:05:16;;;;;;;20.70;8.20;;;23.40;61.70;;;;;;4893361;28;87426;-88
2023/05/19 10:07:47;;;;;;;23.77;7.53;;;23.40;61.80;;;;;;4891636;28;88179;-94
2023/05/19 10:10:14;;;;;;;18.33;7.22;;;23.40;62.00;;;;;;4893775;28;87847;-86
2023/05/19 10:12:41;;;;;;;20.92;7.40;;;23.30;62.00;;;;;;4892507;28;87791;-92
2023/05/19 10:15:10;;;;;;;25.63;7.78;;;23.40;62.10;;;;;;4892613;28;87186;-87
2023/05/19 10:17:37;;;;;;;22.45;7.95;;;23.30;62.10;;;;;;4890127;28;90131;-87
2023/05/19 10:20:05;;;;;;;19.80;7.32;;;23.30;62.30;;;;;;4892047;28;87713;-87
2023/05/19 10:22:32;;;;;;;23.02;7.70;;;23.20;62.20;;;;;;4891990;28;87043;-86
2023/05/19 10:24:58;;;;;;;21.98;7.78;;;23.20;62.30;;;;;;4887405;28;89173;-86
2023/05/19 10:27:26;;;;;;;16.45;7.25;;;23.20;62.40;;;;;;4890601;28;91893;-90
2023/05/19 10:29:55;;;;;;;15.75;6.05;;;23.20;62.40;;;;;;4892035;28;89169;-88
2023/05/19 10:32:29;;;;;;;17.45;6.75;;;23.20;62.40;;;;;;4891190;28;87739;-86
2023/05/19 10:35:00;;;;;;;18.80;7.35;;;23.20;62.40;;;;;;4891221;28;88247;-84
2023/05/19 10:38:00;;;;;;;16.85;6.55;;;23.20;62.50;;;;;;4892414;28;87785;-82
2023/05/19 10:40:27;;;;;;;;;;;23.10;62.60;;;;;;4885460;28;87718;-91
2023/05/19 10:43:06;;;;;;;18.75;7.10;;;23.10;62.70;;;;;;4893421;28;87463;-90
2023/05/19 10:45:38;;;;;;;14.25;5.90;;;23.10;62.50;;;;;;4906427;28;87812;-90
2023/05/19 10:48:03;;;;;;;20.02;7.03;;;23.10;62.50;;;;;;4893037;28;87487;-92
2023/05/19 10:50:36;;;;;;;18.38;6.70;;;23.10;62.60;;;;;;4893591;28;87917;-84
2023/05/19 10:53:01;;;;;;;14.77;6.57;;;23.10;62.50;;;;;;4891115;28;88438;-83
2023/05/19 10:55:52;;;;;;;13.82;5.97;;;23.10;62.50;;;;;;4891587;28;87414;-83
2023/05/19 10:58:36;;;;;;;16.60;6.55;;;23.10;62.30;;;;;;4890504;28;87997;-90
2023/05/19 11:01:06;;;;;;;19.23;6.68;;;23.10;62.40;;;;;;4893035;28;88237;-87
2023/05/19 11:03:46;;;;;;;19.25;6.13;;;23.10;62.20;;;;;;4893053;28;87051;-90
2023/05/19 11:06:17;;;;;;;;;;;23.00;61.90;;;;;;4892290;28;87765;-90
2023/05/19 11:08:43;;;;;;;13.90;6.18;;;23.00;62.50;;;;;;4894225;28;87265;-85
2023/05/19 11:11:15;;;;;;;18.02;6.95;;;23.00;62.60;;;;;;4896190;28;87822;-84
2023/05/19 11:13:55;;;;;;;15.45;5.68;;;23.00;62.40;;;;;;4893360;28;88959;-85
2023/05/19 11:16:28;;;;;;;14.43;6.80;;;23.00;62.50;;;;;;4892341;28;87125;-92
2023/05/19 11:18:55;;;;;;;14.50;5.97;;;23.00;62.70;;;;;;4894313;28;88731;-84
2023/05/19 11:21:20;;;;;;;13.30;6.13;;;22.90;62.80;;;;;;4895195;28;89498;-88
2023/05/19 11:23:46;;;;;;;18.88;6.15;;;22.90;62.70;;;;;;4893640;28;87314;-88
2023/05/19 11:26:12;;;;;;;14.75;5.65;;;22.90;62.60;;;;;;4895401;28;88069;-83
2023/05/19 11:28:38;;;;;;;16.42;6.10;;;22.90;62.80;;;;;;4894945;28;88606;-93
2023/05/19 11:31:06;;;;;;;12.85;5.70;;;22.90;62.60;;;;;;4895128;28;88938;-89
2023/05/19 11:33:32;;;;;;;12.47;5.97;;;22.90;62.70;;;;;;4894182;28;87433;-83
2023/05/19 11:35:58;;;;;;;18.40;7.03;;;22.80;62.60;;;;;;4892647;28;86978;-86
2023/05/19 11:38:25;;;;;;;16.02;6.25;;;22.90;62.60;;;;;;4893470;28;88589;-86
2023/05/19 11:40:55;;;;;;;11.00;5.50;;;22.80;62.50;;;;;;4890488;28;88592;-84
2023/05/19 11:43:24;;;;;;;13.63;6.10;;;22.80;62.60;;;;;;4893874;28;88463;-89
2023/05/19 11:45:50;;;;;;;14.57;6.13;;;22.80;62.60;;;;;;4890899;28;87252;-92
2023/05/19 11:48:20;;;;;;;13.15;6.38;;;22.80;62.70;;;;;;4890841;28;88070;-91
2023/05/19 11:50:45;;;;;;;13.15;5.82;;;22.80;62.70;;;;;;4889474;28;87606;-88
2023/05/19 11:53:12;;;;;;;12.07;5.78;;;22.80;62.60;;;;;;4887925;28;87529;-90
2023/05/19 11:55:45;;;;;;;11.27;5.25;;;22.80;62.70;;;;;;4889912;28;87715;-88
2023/05/19 11:58:11;;;;;;;13.18;5.65;;;22.80;62.60;;;;;;4906017;28;91792;-91
2023/05/19 12:00:38;;;;;;;12.68;4.93;;;22.80;62.80;;;;;;4889634;28;87215;-87
2023/05/19 12:03:04;;;;;;;16.05;6.82;;;22.80;62.80;;;;;;4890942;28;87448;-92
2023/05/19 12:05:30;;;;;;;12.73;5.63;;;22.80;63.00;;;;;;4889730;28;88777;-89
2023/05/19 12:07:56;;;;;;;12.88;5.68;;;22.80;62.90;;;;;;4888427;28;90547;-89
2023/05/19 12:10:22;;;;;;;19.52;5.75;;;22.80;62.80;;;;;;4894398;28;88904;-86
2023/05/19 12:12:50;;;;;;;16.38;5.32;;;22.70;62.90;;;;;;4896981;28;87249;-90
2023/05/19 12:15:19;;;;;;;13.43;5.60;;;22.70;63.00;;;;;;4895663;28;87879;-89
2023/05/19 12:17:55;;;;;;;14.23;5.57;;;22.70;63.00;;;;;;4893594;28;88611;-87
2023/05/19 12:20:22;;;;;;;11.23;5.72;;;22.70;63.00;;;;;;4893955;28;88157;-89
2023/05/19 12:22:49;;;;;;;11.45;5.55;;;22.70;62.90;;;;;;4893561;28;87305;-90
2023/05/19 12:25:15;;;;;;;13.48;5.28;;;22.80;63.10;;;;;;4890275;28;87062;-90
2023/05/19 12:27:42;;;;;;;9.95;5.05;;;22.70;63.00;;;;;;4890833;28;88164;-90
2023/05/19 12:30:09;;;;;;;13.15;5.32;;;22.70;63.00;;;;;;4882478;28;87927;-92
2023/05/19 12:32:35;;;;;;;11.45;4.80;;;22.70;62.90;;;;;;4889352;28;89013;-84
2023/05/19 12:35:06;;;;;;;11.85;5.28;;;22.70;63.10;;;;;;4890152;28;87613;-89
2023/05/19 12:37:33;;;;;;;12.43;5.60;;;22.70;63.00;;;;;;4888785;28;90971;-89
2023/05/19 12:40:00;;;;;;;13.65;5.57;;;22.70;63.10;;;;;;4905434;28;90464;-91
2023/05/19 12:42:30;;;;;;;11.25;5.47;;;22.70;63.00;;;;;;4890090;28;87825;-87
2023/05/19 12:44:57;;;;;;;11.13;4.88;;;22.70;63.00;;;;;;4892139;28;87921;-87
2023/05/19 12:47:30;;;;;;;13.00;5.75;;;22.70;62.80;;;;;;4894391;28;89272;-88